Mancos, CO (81328)

12:09 PM MDT on September 04, 2015 (GMT -0600)
East Canyon | | Change Station
CLOSE
Current Station
Personal Weather Station
Location: Mancos, CO
Elevation: 7550 ft
Nearby Weather Stations

Elev 7550 ft 37.30 °N, 108.23 °W | Updated 55 minutes ago

Overcast
Overcast
64.7 °F
Feels Like 64.7 °F
N
2.0
Wind Variable Wind from ENE
Gusts 6.0 mph

Today
High -- | Low -- °F
--% Chance of Precip.
Yesterday
High -- | Low -- °F
Precip. -- in
6:46 AM 7:38 PM
Waning Gibbous, 57% visible
Pressure 29.91 in
Visibility 10.0 miles
Clouds Few 6000 ft
Scattered Clouds 8500 ft
Overcast 11000 ft
Dew Point 44 °F
Humidity 47%
Rainfall 0.02 in
Snow Depth Not available.
UV 3 out of 12
Pollen 6.70 out of 12
Air Quality Not available.
Flu Activity Not available.
METAR KCEZ 041753Z AUTO 17009KT 10SM FEW060 SCT085 OVC110 22/10 A3013 RMK AO2 RAB1659E19 SLP126 P0000 60000 T02220100 10222 20150 50001
Pressure 29.91 in
Visibility 10.0 miles
Clouds Few 6000 ft
Scattered Clouds 8500 ft
Overcast 11000 ft
Dew Point 44 °F
Humidity 47%
Rainfall 0.02 in
Snow Depth Not available.
UV 3 out of 12
Pollen 6.70 out of 12
Air Quality Not available.
Flu Activity Not available.
METAR KCEZ 041753Z AUTO 17009KT 10SM FEW060 SCT085 OVC110 22/10 A3013 RMK AO2 RAB1659E19 SLP126 P0000 60000 T02220100 10222 20150 50001

10-Day Weather Forecast

×

Almanac

Astronomy

Sep. 04, 2015 Rise Set
Actual Time
Civil Twilight
Nautical Twilight
Astronomical Twilight
Moon
Length of Visible Light
Length of Day
Tomorrow will be .
, % of the Moon is Illuminated

Today's Extremes

State Highs State Lows

Community

WunderPhotos

Upload Photos

1,852,253 photos uploaded!

WunderBlogs® & News

Nearby

Air Quality

  Air Quality AQ Index Pollutant
Not available.

Snow Depth

Station Depth Elevation

Earthquake Activity

City Distance Mag. Time & Date
Minimum magnitude displayed is 2.5.

Coastal Water Temperatures

Place Temperature

Stations

Nearby Weather Stations

Station Location Temp. Windchill Dew Point Humidity Wind Precip. Elev Updated Type